DAL1349 KPBI-KLGA
Flight info
| Callsign | DAL1349 |
|---|---|
| Flight time | N/A |
| Altitude | 35000 |
| Route | SLIDZ3 LENDS GRUBR Y299 SEELO GARIC Q107 HURTS PROUD2 |
| Aircraft | A321/M-SDE3FGHIRWY/LB1 |
Departure
| Time | 2026-04-21 19:28 |
|---|---|
| Airport | Palm Beach International Airport (KPBI) |
Arrival
| Time | N/A |
|---|---|
| Airport | LaGuardia Airport (KLGA) |
| Time | Latitude | Longitude | Altitude | Speed | Heading |
|---|---|---|---|---|---|
| 2026-04-21 18:54 | 26.68741 | -80.08897 | 27 ft | 0 kts | 281° |
| 2026-04-21 19:17 | 26.68738 | -80.08879 | 27 ft | 4 kts | 279° |
| 2026-04-21 19:17 | 26.68734 | -80.08849 | 27 ft | 4 kts | 271° |
| 2026-04-21 19:17 | 26.68737 | -80.08822 | 27 ft | 4 kts | 233° |
| 2026-04-21 19:18 | 26.68746 | -80.08813 | 27 ft | 0 kts | 184° |
| 2026-04-21 19:21 | 26.68743 | -80.08813 | 27 ft | 2 kts | 184° |
| 2026-04-21 19:21 | 26.68713 | -80.08816 | 26 ft | 7 kts | 184° |
| 2026-04-21 19:21 | 26.68656 | -80.08816 | 27 ft | 9 kts | 163° |
| 2026-04-21 19:21 | 26.68590 | -80.08776 | 25 ft | 12 kts | 151° |
| 2026-04-21 19:22 | 26.68496 | -80.08775 | 24 ft | 15 kts | 186° |
| 2026-04-21 19:22 | 26.68440 | -80.08757 | 24 ft | 12 kts | 133° |
| 2026-04-21 19:22 | 26.68431 | -80.08650 | 25 ft | 11 kts | 108° |
| 2026-04-21 19:22 | 26.68389 | -80.08625 | 26 ft | 11 kts | 188° |
| 2026-04-21 19:23 | 26.68340 | -80.08718 | 25 ft | 15 kts | 272° |
| 2026-04-21 19:23 | 26.68344 | -80.08804 | 22 ft | 18 kts | 274° |
| 2026-04-21 19:23 | 26.68352 | -80.08958 | 20 ft | 21 kts | 272° |
| 2026-04-21 19:23 | 26.68355 | -80.09122 | 22 ft | 19 kts | 272° |
| 2026-04-21 19:24 | 26.68364 | -80.09279 | 22 ft | 21 kts | 274° |
| 2026-04-21 19:24 | 26.68374 | -80.09454 | 24 ft | 23 kts | 272° |
| 2026-04-21 19:24 | 26.68377 | -80.09623 | 29 ft | 20 kts | 272° |
| 2026-04-21 19:24 | 26.68382 | -80.09766 | 29 ft | 17 kts | 272° |
| 2026-04-21 19:25 | 26.68390 | -80.09895 | 29 ft | 16 kts | 274° |
| 2026-04-21 19:25 | 26.68396 | -80.10008 | 30 ft | 13 kts | 273° |
| 2026-04-21 19:25 | 26.68400 | -80.10102 | 30 ft | 15 kts | 272° |
| 2026-04-21 19:25 | 26.68400 | -80.10238 | 28 ft | 18 kts | 271° |
| 2026-04-21 19:26 | 26.68410 | -80.10381 | 25 ft | 18 kts | 276° |
| 2026-04-21 19:26 | 26.68418 | -80.10520 | 23 ft | 18 kts | 272° |
| 2026-04-21 19:26 | 26.68422 | -80.10654 | 21 ft | 17 kts | 271° |
| 2026-04-21 19:26 | 26.68373 | -80.10735 | 20 ft | 12 kts | 177° |
| 2026-04-21 19:27 | 26.68315 | -80.10704 | 21 ft | 7 kts | 109° |
| 2026-04-21 19:27 | 26.68315 | -80.10694 | 22 ft | 0 kts | 92° |
| 2026-04-21 19:27 | 26.68314 | -80.10680 | 22 ft | 8 kts | 92° |
| 2026-04-21 19:27 | 26.68304 | -80.10411 | 23 ft | 67 kts | 92° |
| 2026-04-21 19:28 | 26.68273 | -80.09673 | 29 ft | 120 kts | 92° |
| 2026-04-21 19:28 | 26.68227 | -80.08571 | 42 ft | 159 kts | 87° |
| 2026-04-21 19:28 | 26.68186 | -80.07342 | 577 ft | 158 kts | 90° |
| 2026-04-21 19:28 | 26.68157 | -80.06098 | 1108 ft | 163 kts | 89° |
| 2026-04-21 19:29 | 26.68345 | -80.04830 | 1592 ft | 169 kts | 68° |
| 2026-04-21 19:29 | 26.68890 | -80.03643 | 1959 ft | 178 kts | 62° |
| 2026-04-21 19:29 | 26.69502 | -80.02348 | 2097 ft | 198 kts | 62° |
| 2026-04-21 19:29 | 26.70180 | -80.00911 | 2298 ft | 218 kts | 64° |
| 2026-04-21 19:30 | 26.70922 | -79.99332 | 2705 ft | 235 kts | 63° |
| 2026-04-21 19:30 | 26.71703 | -79.97710 | 3465 ft | 239 kts | 58° |
| 2026-04-21 19:30 | 26.72765 | -79.96263 | 4181 ft | 243 kts | 50° |
| 2026-04-21 19:30 | 26.73889 | -79.94826 | 4898 ft | 248 kts | 50° |
| 2026-04-21 19:31 | 26.75024 | -79.93363 | 5570 ft | 253 kts | 49° |
| 2026-04-21 19:31 | 26.76199 | -79.91843 | 6186 ft | 261 kts | 49° |
| 2026-04-21 19:31 | 26.77400 | -79.90287 | 6783 ft | 268 kts | 48° |
| 2026-04-21 19:31 | 26.78633 | -79.88690 | 7397 ft | 273 kts | 48° |
| 2026-04-21 19:32 | 26.79883 | -79.87071 | 8051 ft | 276 kts | 47° |
| 2026-04-21 19:32 | 26.81145 | -79.85432 | 8719 ft | 280 kts | 47° |
| 2026-04-21 19:32 | 26.82425 | -79.83770 | 9388 ft | 283 kts | 47° |
| 2026-04-21 19:32 | 26.83715 | -79.82095 | 10049 ft | 286 kts | 47° |
| 2026-04-21 19:33 | 26.84588 | -79.80963 | 10294 ft | 296 kts | 47° |
| 2026-04-21 19:33 | 26.86483 | -79.78512 | 10455 ft | 325 kts | 47° |
| 2026-04-21 19:33 | 26.88004 | -79.76542 | 10570 ft | 345 kts | 47° |
| 2026-04-21 19:33 | 26.89604 | -79.74467 | 10861 ft | 357 kts | 46° |
| 2026-04-21 19:34 | 26.91236 | -79.72347 | 11388 ft | 362 kts | 47° |
| 2026-04-21 19:34 | 26.92939 | -79.70255 | 11931 ft | 364 kts | 41° |
| 2026-04-21 19:34 | 26.94770 | -79.68317 | 12495 ft | 368 kts | 41° |
| 2026-04-21 19:34 | 26.96637 | -79.66350 | 13057 ft | 372 kts | 40° |
| 2026-04-21 19:35 | 26.98538 | -79.64350 | 13626 ft | 376 kts | 41° |
| 2026-04-21 19:35 | 27.02396 | -79.60288 | 14658 ft | 383 kts | 40° |
| 2026-04-21 19:35 | 27.04336 | -79.58241 | 15162 ft | 386 kts | 40° |
| 2026-04-21 19:36 | 27.06309 | -79.56155 | 15652 ft | 389 kts | 40° |
| 2026-04-21 19:36 | 27.08280 | -79.54074 | 16148 ft | 393 kts | 39° |
| 2026-04-21 19:36 | 27.10285 | -79.51955 | 16624 ft | 396 kts | 40° |
| 2026-04-21 19:36 | 27.12296 | -79.49829 | 17102 ft | 399 kts | 40° |
| 2026-04-21 19:37 | 27.14322 | -79.47685 | 17582 ft | 402 kts | 40° |
| 2026-04-21 19:37 | 27.16366 | -79.45522 | 18033 ft | 405 kts | 40° |
| 2026-04-21 19:37 | 27.18422 | -79.43343 | 18493 ft | 408 kts | 40° |
| 2026-04-21 19:37 | 27.20494 | -79.41143 | 18889 ft | 411 kts | 40° |
| 2026-04-21 19:38 | 27.22576 | -79.38930 | 19284 ft | 414 kts | 40° |
| 2026-04-21 19:38 | 27.24644 | -79.36736 | 19658 ft | 417 kts | 40° |
| 2026-04-21 19:38 | 27.26769 | -79.34483 | 20059 ft | 419 kts | 40° |
| 2026-04-21 19:38 | 27.28898 | -79.32226 | 20443 ft | 422 kts | 39° |
| 2026-04-21 19:39 | 27.31046 | -79.29944 | 20830 ft | 425 kts | 39° |
| 2026-04-21 19:39 | 27.33199 | -79.27654 | 21213 ft | 428 kts | 39° |
| 2026-04-21 19:39 | 27.35361 | -79.25350 | 21588 ft | 430 kts | 39° |
| 2026-04-21 19:39 | 27.37543 | -79.23023 | 21975 ft | 433 kts | 39° |
| 2026-04-21 19:40 | 27.39740 | -79.20684 | 22361 ft | 435 kts | 39° |
| 2026-04-21 19:40 | 27.41942 | -79.18338 | 22745 ft | 438 kts | 39° |
| 2026-04-21 19:40 | 27.44155 | -79.15976 | 23110 ft | 441 kts | 39° |
| 2026-04-21 19:40 | 27.46384 | -79.13598 | 23488 ft | 443 kts | 39° |
| 2026-04-21 19:41 | 27.48640 | -79.11188 | 23865 ft | 445 kts | 39° |
| 2026-04-21 19:41 | 27.50893 | -79.08775 | 24161 ft | 448 kts | 39° |
| 2026-04-21 19:41 | 27.53155 | -79.06350 | 24470 ft | 450 kts | 39° |
| 2026-04-21 19:41 | 27.55427 | -79.03917 | 24774 ft | 452 kts | 39° |
| 2026-04-21 19:42 | 27.57683 | -79.01502 | 25074 ft | 454 kts | 38° |
| 2026-04-21 19:42 | 27.59981 | -78.99050 | 25369 ft | 456 kts | 38° |
| 2026-04-21 19:42 | 27.62291 | -78.96583 | 25659 ft | 458 kts | 38° |
| 2026-04-21 19:42 | 27.64694 | -78.94245 | 25959 ft | 455 kts | 31° |
| 2026-04-21 19:43 | 27.67376 | -78.92380 | 26231 ft | 450 kts | 21° |
| 2026-04-21 19:43 | 27.70250 | -78.91061 | 26509 ft | 445 kts | 12° |
| 2026-04-21 19:43 | 27.73264 | -78.90277 | 26779 ft | 441 kts | 3° |
| 2026-04-21 19:43 | 27.76312 | -78.89841 | 27044 ft | 442 kts | 2° |
| 2026-04-21 19:44 | 27.79358 | -78.89415 | 27313 ft | 444 kts | 2° |
| 2026-04-21 19:44 | 27.82451 | -78.88985 | 27585 ft | 446 kts | 2° |
| 2026-04-21 19:44 | 27.85540 | -78.88555 | 27856 ft | 448 kts | 2° |
| 2026-04-21 19:44 | 27.88634 | -78.88120 | 28121 ft | 449 kts | 2° |
| 2026-04-21 19:45 | 27.91749 | -78.87678 | 28392 ft | 451 kts | 2° |
| 2026-04-21 19:45 | 27.94831 | -78.87239 | 28660 ft | 453 kts | 2° |
| 2026-04-21 19:45 | 27.97963 | -78.86797 | 28960 ft | 454 kts | 2° |
| 2026-04-21 19:45 | 28.01094 | -78.86360 | 29299 ft | 453 kts | 1° |
| 2026-04-21 19:46 | 28.04224 | -78.85924 | 29650 ft | 453 kts | 1° |
| 2026-04-21 19:46 | 28.07335 | -78.85487 | 29994 ft | 452 kts | 1° |
| 2026-04-21 19:46 | 28.10468 | -78.85043 | 30350 ft | 451 kts | 1° |
| 2026-04-21 19:46 | 28.13582 | -78.84599 | 30645 ft | 450 kts | 1° |
| 2026-04-21 19:47 | 28.16693 | -78.84159 | 30953 ft | 449 kts | 1° |
| 2026-04-21 19:47 | 28.19784 | -78.83723 | 31257 ft | 448 kts | 1° |
| 2026-04-21 19:47 | 28.22885 | -78.83284 | 31569 ft | 447 kts | 1° |
| 2026-04-21 19:47 | 28.25968 | -78.82845 | 31888 ft | 446 kts | 1° |
| 2026-04-21 19:48 | 28.29040 | -78.82406 | 32194 ft | 445 kts | 1° |
| 2026-04-21 19:48 | 28.32122 | -78.81964 | 32503 ft | 444 kts | 1° |
| 2026-04-21 19:48 | 28.35138 | -78.81535 | 32804 ft | 443 kts | 1° |
| 2026-04-21 19:48 | 28.38198 | -78.81104 | 33109 ft | 442 kts | 1° |
| 2026-04-21 19:49 | 28.41261 | -78.80670 | 33408 ft | 441 kts | 1° |
| 2026-04-21 19:49 | 28.44305 | -78.80240 | 33700 ft | 441 kts | 1° |
| 2026-04-21 19:49 | 28.47340 | -78.79811 | 33989 ft | 440 kts | 1° |
| 2026-04-21 19:49 | 28.50364 | -78.79381 | 34272 ft | 439 kts | 1° |
| 2026-04-21 19:50 | 28.52386 | -78.79091 | 34436 ft | 439 kts | 1° |
| 2026-04-21 19:50 | 28.56442 | -78.78512 | 34719 ft | 439 kts | 1° |
| 2026-04-21 19:50 | 28.59462 | -78.78083 | 34923 ft | 439 kts | 1° |
| 2026-04-21 19:51 | 28.65536 | -78.77222 | 35034 ft | 438 kts | 1° |
| 2026-04-21 19:51 | 28.71589 | -78.76349 | 35034 ft | 437 kts | 1° |
| 2026-04-21 19:52 | 28.77580 | -78.75493 | 35037 ft | 437 kts | 1° |
| 2026-04-21 19:52 | 28.83632 | -78.74633 | 35036 ft | 437 kts | 1° |
| 2026-04-21 19:53 | 28.89670 | -78.73767 | 35042 ft | 438 kts | 1° |
| 2026-04-21 19:53 | 28.95718 | -78.72902 | 35051 ft | 438 kts | 1° |
| 2026-04-21 19:54 | 29.01772 | -78.72032 | 35053 ft | 438 kts | 1° |
| 2026-04-21 19:54 | 29.07822 | -78.71165 | 35057 ft | 437 kts | 1° |
| 2026-04-21 19:55 | 29.13857 | -78.70292 | 35064 ft | 437 kts | 1° |
| 2026-04-21 19:55 | 29.19892 | -78.69417 | 35064 ft | 437 kts | 1° |
| 2026-04-21 19:56 | 29.25918 | -78.68553 | 35063 ft | 436 kts | 1° |
| 2026-04-21 19:56 | 29.31908 | -78.67687 | 35066 ft | 436 kts | 1° |
| 2026-04-21 19:57 | 29.37914 | -78.66816 | 35064 ft | 435 kts | 1° |
| 2026-04-21 19:57 | 29.43921 | -78.65972 | 35066 ft | 435 kts | 1° |
| 2026-04-21 19:58 | 29.49924 | -78.65127 | 35069 ft | 434 kts | 1° |
| 2026-04-21 19:58 | 29.55912 | -78.64283 | 35069 ft | 434 kts | 1° |
| 2026-04-21 19:59 | 29.61897 | -78.63440 | 35070 ft | 433 kts | 1° |
| 2026-04-21 19:59 | 29.67879 | -78.62598 | 35069 ft | 432 kts | 1° |
| 2026-04-21 20:00 | 29.73851 | -78.61755 | 35069 ft | 432 kts | 1° |
| 2026-04-21 20:00 | 29.79820 | -78.60906 | 35069 ft | 431 kts | 1° |
| 2026-04-21 20:01 | 29.85728 | -78.60071 | 35068 ft | 430 kts | 1° |
| 2026-04-21 20:01 | 29.91665 | -78.59238 | 35067 ft | 430 kts | 1° |
| 2026-04-21 20:02 | 29.96649 | -78.58530 | 35064 ft | 429 kts | 1° |
| 2026-04-21 20:02 | 30.03542 | -78.57538 | 35061 ft | 429 kts | 1° |
| 2026-04-21 20:03 | 30.09461 | -78.56695 | 35063 ft | 429 kts | 1° |
| 2026-04-21 20:03 | 30.15401 | -78.55860 | 35058 ft | 429 kts | 1° |
| 2026-04-21 20:04 | 30.21331 | -78.55008 | 35057 ft | 429 kts | 1° |
| 2026-04-21 20:04 | 30.27216 | -78.54159 | 35049 ft | 428 kts | 1° |
| 2026-04-21 20:05 | 30.33129 | -78.53312 | 35048 ft | 428 kts | 0° |
| 2026-04-21 20:05 | 30.39050 | -78.52464 | 35054 ft | 428 kts | 0° |
| 2026-04-21 20:06 | 30.44953 | -78.51599 | 35046 ft | 429 kts | 1° |
| 2026-04-21 20:06 | 30.50869 | -78.50635 | 35043 ft | 429 kts | 1° |
| 2026-04-21 20:07 | 30.56791 | -78.49645 | 35043 ft | 429 kts | 1° |
| 2026-04-21 20:07 | 30.61700 | -78.48848 | 35046 ft | 429 kts | 1° |
| 2026-04-21 20:08 | 30.67605 | -78.47895 | 35050 ft | 428 kts | 1° |
| 2026-04-21 20:08 | 30.74475 | -78.46778 | 35054 ft | 428 kts | 1° |
| 2026-04-21 20:09 | 30.80384 | -78.45808 | 35054 ft | 428 kts | 1° |
| 2026-04-21 20:09 | 30.85284 | -78.45007 | 35054 ft | 428 kts | 1° |
| 2026-04-21 20:10 | 30.91176 | -78.44047 | 35060 ft | 427 kts | 1° |
| 2026-04-21 20:10 | 30.97067 | -78.43091 | 35068 ft | 427 kts | 1° |
| 2026-04-21 20:11 | 31.02957 | -78.42130 | 35070 ft | 426 kts | 1° |
| 2026-04-21 20:11 | 31.08780 | -78.41175 | 35070 ft | 425 kts | 1° |
| 2026-04-21 20:12 | 31.14644 | -78.40215 | 35066 ft | 425 kts | 1° |
| 2026-04-21 20:12 | 31.20516 | -78.39255 | 35067 ft | 425 kts | 1° |
| 2026-04-21 20:13 | 31.26375 | -78.38291 | 35064 ft | 425 kts | 1° |
| 2026-04-21 20:13 | 31.32219 | -78.37318 | 35060 ft | 425 kts | 1° |
| 2026-04-21 20:14 | 31.38037 | -78.36365 | 35061 ft | 425 kts | 1° |
| 2026-04-21 20:14 | 31.43888 | -78.35403 | 35067 ft | 424 kts | 1° |
| 2026-04-21 20:15 | 31.49742 | -78.34439 | 35301 ft | 425 kts | 1° |
| 2026-04-21 20:15 | 31.55602 | -78.33468 | 35329 ft | 424 kts | 1° |
| 2026-04-21 20:16 | 31.61440 | -78.32503 | 35326 ft | 424 kts | 1° |
| 2026-04-21 20:16 | 31.67283 | -78.31533 | 35328 ft | 423 kts | 1° |
| 2026-04-21 20:17 | 31.73096 | -78.30567 | 35325 ft | 423 kts | 1° |
| 2026-04-21 20:17 | 31.78902 | -78.29609 | 35331 ft | 423 kts | 1° |
| 2026-04-21 20:18 | 31.84736 | -78.28626 | 35332 ft | 423 kts | 1° |
| 2026-04-21 20:18 | 31.90544 | -78.27661 | 35352 ft | 422 kts | 1° |
| 2026-04-21 20:19 | 31.96380 | -78.26696 | 35338 ft | 422 kts | 1° |
| 2026-04-21 20:19 | 32.02193 | -78.25726 | 35351 ft | 422 kts | 1° |
| 2026-04-21 20:20 | 32.08004 | -78.24818 | 35345 ft | 421 kts | 360° |
| 2026-04-21 20:20 | 32.13801 | -78.24001 | 35352 ft | 420 kts | 360° |
| 2026-04-21 20:21 | 32.19625 | -78.23173 | 35355 ft | 420 kts | 360° |
| 2026-04-21 20:21 | 32.25429 | -78.22327 | 35357 ft | 420 kts | 360° |
| 2026-04-21 20:22 | 32.31217 | -78.21487 | 35360 ft | 419 kts | 360° |
| 2026-04-21 20:22 | 32.39862 | -78.20218 | 35361 ft | 418 kts | 360° |
| 2026-04-21 20:23 | 32.45614 | -78.19367 | 35362 ft | 418 kts | 360° |
| 2026-04-21 20:23 | 32.51412 | -78.18510 | 35359 ft | 418 kts | 360° |
| 2026-04-21 20:24 | 32.57186 | -78.17663 | 35359 ft | 417 kts | 360° |
| 2026-04-21 20:24 | 32.62938 | -78.16823 | 35357 ft | 417 kts | 360° |
| 2026-04-21 20:25 | 32.68696 | -78.15969 | 35358 ft | 417 kts | 360° |
| 2026-04-21 20:25 | 32.74459 | -78.15117 | 35358 ft | 417 kts | 360° |
| 2026-04-21 20:26 | 32.80202 | -78.14268 | 35361 ft | 417 kts | 360° |
| 2026-04-21 20:26 | 32.85957 | -78.13414 | 35366 ft | 417 kts | 360° |
| 2026-04-21 20:27 | 32.91663 | -78.12567 | 35367 ft | 417 kts | 360° |
| 2026-04-21 20:27 | 32.97436 | -78.11706 | 35369 ft | 416 kts | 360° |
| 2026-04-21 20:28 | 33.03172 | -78.10851 | 35372 ft | 417 kts | 360° |
| 2026-04-21 20:28 | 33.08944 | -78.09995 | 35376 ft | 416 kts | 360° |
| 2026-04-21 20:29 | 33.14703 | -78.09137 | 35378 ft | 416 kts | 360° |
| 2026-04-21 20:29 | 33.20451 | -78.08278 | 35379 ft | 416 kts | 360° |
| 2026-04-21 20:30 | 33.26195 | -78.07414 | 35378 ft | 416 kts | 360° |
| 2026-04-21 20:30 | 33.31894 | -78.06569 | 35383 ft | 416 kts | 360° |
| 2026-04-21 20:31 | 33.37642 | -78.05706 | 35385 ft | 416 kts | 360° |
| 2026-04-21 20:31 | 33.43383 | -78.04844 | 35392 ft | 416 kts | 360° |
| 2026-04-21 20:32 | 33.49120 | -78.03979 | 35391 ft | 415 kts | 360° |
| 2026-04-21 20:32 | 33.54856 | -78.03114 | 35396 ft | 415 kts | 360° |
| 2026-04-21 20:33 | 33.60588 | -78.02254 | 35404 ft | 415 kts | 360° |
| 2026-04-21 20:33 | 33.66305 | -78.01398 | 35401 ft | 414 kts | 360° |
| 2026-04-21 20:34 | 33.72023 | -78.00530 | 35401 ft | 413 kts | 360° |
| 2026-04-21 20:34 | 33.77719 | -77.99662 | 35399 ft | 413 kts | 360° |
| 2026-04-21 20:35 | 33.83413 | -77.98802 | 35397 ft | 412 kts | 360° |
| 2026-04-21 20:35 | 33.89099 | -77.97935 | 35398 ft | 411 kts | 0° |
| 2026-04-21 20:36 | 33.94737 | -77.97060 | 35393 ft | 411 kts | 0° |
| 2026-04-21 20:36 | 34.00396 | -77.96165 | 35392 ft | 411 kts | 0° |
| 2026-04-21 20:37 | 34.06061 | -77.95269 | 35388 ft | 410 kts | 0° |
| 2026-04-21 20:37 | 34.11721 | -77.94382 | 35389 ft | 410 kts | 0° |
| 2026-04-21 20:38 | 34.17373 | -77.93500 | 35396 ft | 409 kts | 0° |